Time;durP1;ratioP1;P1;durP2;ratioP2;P2;SDS_P1;SDS_P2;PMS_P1;PMS_P2;Temp;Humidity;BMP_temperature;BMP_pressure;BME280_temperature;BME280_humidity;BME280_pressure;Samples;Min_cycle;Max_cycle;Signal;HPM_P1;HPM_P2
2021/06/09 00:00:20;;;;;;;5.00;1.60;;;18.60;1.00;;;;;;5013165;28;20460;-77
2021/06/09 00:02:46;;;;;;;2.87;2.10;;;18.60;1.00;;;;;;5016263;28;20450;-77
2021/06/09 00:05:13;;;;;;;1.67;1.57;;;18.60;1.00;;;;;;5005316;28;21005;-77
2021/06/09 00:07:40;;;;;;;2.40;2.03;;;18.50;1.00;;;;;;5013142;28;21109;-76
2021/06/09 00:10:08;;;;;;;1.70;1.60;;;18.50;1.00;;;;;;5018290;28;20450;-78
2021/06/09 00:12:34;;;;;;;3.23;2.00;;;18.50;1.00;;;;;;5015651;28;20564;-77
2021/06/09 00:15:01;;;;;;;2.97;2.20;;;18.40;1.00;;;;;;4997941;28;20623;-78
2021/06/09 00:17:28;;;;;;;2.43;1.70;;;18.30;1.00;;;;;;5021417;28;20511;-80
2021/06/09 00:19:54;;;;;;;3.10;1.90;;;18.30;1.00;;;;;;5024066;28;20506;-78
2021/06/09 00:22:20;;;;;;;4.33;2.33;;;18.30;1.00;;;;;;5025485;28;20464;-78
2021/06/09 00:24:47;;;;;;;2.40;2.20;;;18.20;1.00;;;;;;5026051;28;20456;-80
2021/06/09 00:27:14;;;;;;;2.80;2.13;;;18.20;1.00;;;;;;5028063;28;20543;-77
2021/06/09 00:29:40;;;;;;;1.70;1.60;;;18.10;1.00;;;;;;5022880;28;20427;-78
2021/06/09 00:32:07;;;;;;;2.50;2.10;;;18.00;1.00;;;;;;5028042;28;20662;-76
2021/06/09 00:34:33;;;;;;;2.10;1.90;;;18.00;1.00;;;;;;5026148;28;20438;-78
2021/06/09 00:37:00;;;;;;;3.07;1.97;;;18.00;1.00;;;;;;5016819;28;20539;-80
2021/06/09 00:39:26;;;;;;;2.20;2.00;;;18.00;1.00;;;;;;5017031;28;20448;-79
2021/06/09 00:41:53;;;;;;;2.90;2.20;;;17.90;1.00;;;;;;5023922;28;20494;-81
2021/06/09 00:44:19;;;;;;;3.80;2.80;;;17.90;1.00;;;;;;5028935;28;20425;-77
2021/06/09 00:46:45;;;;;;;2.20;1.90;;;17.80;1.00;;;;;;5049065;28;20681;-77
2021/06/09 00:49:12;;;;;;;1.77;1.40;;;17.80;1.00;;;;;;5025570;28;20418;-76
2021/06/09 00:51:38;;;;;;;2.90;1.63;;;17.80;1.00;;;;;;5042607;28;20455;-75
2021/06/09 00:54:05;;;;;;;1.67;1.57;;;17.80;1.00;;;;;;5038898;28;20403;-75
2021/06/09 00:56:33;;;;;;;2.70;1.90;;;17.70;1.00;;;;;;5039939;28;20445;-77
2021/06/09 00:59:01;;;;;;;3.70;2.20;;;17.70;1.00;;;;;;5046474;28;20421;-78
2021/06/09 01:01:29;;;;;;;2.20;2.00;;;17.60;1.00;;;;;;5045086;28;20431;-75
2021/06/09 01:03:55;;;;;;;4.80;2.23;;;17.50;1.00;;;;;;5042964;28;20497;-76
2021/06/09 01:06:22;;;;;;;2.43;2.23;;;17.40;1.00;;;;;;5034005;28;20432;-75
2021/06/09 01:08:51;;;;;;;6.40;3.50;;;17.30;1.00;;;;;;5040959;28;20808;-78
2021/06/09 01:11:18;;;;;;;2.40;2.20;;;17.10;1.00;;;;;;5040241;28;20489;-75
2021/06/09 01:13:44;;;;;;;2.20;1.67;;;17.10;1.00;;;;;;5028107;28;21267;-77
2021/06/09 01:16:12;;;;;;;2.70;2.40;;;17.00;1.00;;;;;;5026783;28;20508;-78
2021/06/09 01:18:40;;;;;;;2.53;2.33;;;17.00;1.00;;;;;;5020721;28;20477;-78
2021/06/09 01:21:06;;;;;;;2.70;2.50;;;16.90;1.00;;;;;;5024327;28;20461;-76
2021/06/09 01:23:34;;;;;;;4.77;3.10;;;16.90;1.00;;;;;;5016234;28;21022;-79
2021/06/09 01:26:01;;;;;;;3.37;2.57;;;16.90;1.00;;;;;;5015887;28;20463;-78
2021/06/09 01:28:28;;;;;;;3.50;2.40;;;16.80;1.00;;;;;;5016703;28;20599;-78
2021/06/09 01:30:55;;;;;;;2.30;2.10;;;16.80;1.00;;;;;;5019036;28;20530;-79
2021/06/09 01:33:22;;;;;;;2.80;2.17;;;16.80;1.00;;;;;;5024373;28;20448;-76
2021/06/09 01:35:50;;;;;;;2.10;1.60;;;16.80;1.00;;;;;;5014781;28;20466;-80
2021/06/09 01:38:17;;;;;;;2.30;2.10;;;16.80;1.00;;;;;;5016318;28;20994;-77
2021/06/09 01:40:45;;;;;;;3.20;2.47;;;16.80;1.00;;;;;;5022089;28;20462;-77
2021/06/09 01:43:11;;;;;;;2.80;2.60;;;16.70;1.00;;;;;;5015829;28;21159;-79
2021/06/09 01:45:39;;;;;;;3.17;2.53;;;16.70;1.00;;;;;;5014073;28;21377;-77
2021/06/09 01:48:06;;;;;;;2.50;2.10;;;16.70;1.00;;;;;;5013840;28;20470;-78
2021/06/09 01:50:33;;;;;;;3.10;2.57;;;16.70;1.00;;;;;;5013521;28;20545;-79
2021/06/09 01:53:02;;;;;;;3.17;2.40;;;16.70;1.00;;;;;;5011797;28;21568;-79
2021/06/09 01:55:31;;;;;;;2.70;2.13;;;16.70;1.00;;;;;;5014630;28;20459;-76
2021/06/09 01:57:59;;;;;;;7.27;3.17;;;16.60;1.00;;;;;;5009664;28;20423;-75
2021/06/09 02:00:28;;;;;;;3.77;2.50;;;16.70;1.00;;;;;;5019403;28;20907;-76
2021/06/09 02:02:58;;;;;;;3.70;2.83;;;16.60;1.00;;;;;;5017810;28;21033;-77
2021/06/09 02:05:26;;;;;;;3.00;2.43;;;16.50;1.00;;;;;;5013462;28;20473;-79
2021/06/09 02:07:52;;;;;;;3.50;2.47;;;16.60;1.00;;;;;;5015155;28;20460;-79
2021/06/09 02:10:20;;;;;;;2.63;2.43;;;16.50;1.00;;;;;;5011745;28;20455;-80
2021/06/09 02:12:50;;;;;;;2.67;2.20;;;16.50;1.00;;;;;;5012509;28;20996;-79
2021/06/09 02:15:19;;;;;;;3.20;2.37;;;16.50;1.00;;;;;;4997392;28;20446;-79
2021/06/09 02:17:56;;;;;;;3.87;2.50;;;16.40;1.00;;;;;;5011923;28;20962;-79
2021/06/09 02:20:24;;;;;;;2.50;2.23;;;16.40;1.00;;;;;;5031265;22;21005;-78
2021/06/09 02:22:50;;;;;;;2.50;2.07;;;16.30;1.00;;;;;;5033174;28;20457;-76
2021/06/09 02:25:17;;;;;;;2.73;2.17;;;16.30;1.00;;;;;;5042985;28;20421;-77
2021/06/09 02:27:44;;;;;;;2.90;2.20;;;16.20;1.00;;;;;;5034404;28;20476;-77
2021/06/09 02:30:11;;;;;;;4.17;2.70;;;16.20;1.00;;;;;;5026691;28;20458;-78
2021/06/09 02:32:40;;;;;;;2.43;2.23;;;16.10;1.00;;;;;;5012470;28;20443;-77
2021/06/09 02:35:12;;;;;;;4.73;2.40;;;16.10;1.00;;;;;;5013497;28;20552;-78
2021/06/09 02:37:38;;;;;;;4.10;2.67;;;16.00;1.00;;;;;;4999172;28;20477;-77
2021/06/09 02:40:08;;;;;;;2.97;2.60;;;16.00;1.00;;;;;;5018085;28;20954;-77
2021/06/09 02:42:35;;;;;;;6.67;3.40;;;15.90;1.00;;;;;;4994961;28;20427;-77
2021/06/09 02:45:03;;;;;;;5.57;3.07;;;15.90;1.00;;;;;;4996079;28;20551;-78
2021/06/09 02:47:30;;;;;;;3.17;2.83;;;15.90;1.00;;;;;;5015978;28;20448;-78
2021/06/09 02:49:59;;;;;;;6.10;2.70;;;15.90;1.00;;;;;;5013157;28;20504;-79
2021/06/09 02:52:31;;;;;;;4.47;3.17;;;15.80;1.00;;;;;;5018399;28;20465;-78
2021/06/09 02:55:05;;;;;;;3.27;2.83;;;15.80;1.00;;;;;;5014495;28;20495;-79
2021/06/09 02:57:36;;;;;;;2.60;2.30;;;15.80;1.00;;;;;;5014593;28;20460;-77
2021/06/09 03:00:06;;;;;;;5.90;3.20;;;15.80;1.00;;;;;;5013679;28;20524;-77
2021/06/09 03:02:48;;;;;;;5.00;2.57;;;15.80;1.00;;;;;;5013247;28;24019;-77
2021/06/09 03:05:22;;;;;;;4.40;3.53;;;15.70;1.00;;;;;;5012402;28;20501;-78
2021/06/09 03:07:59;;;;;;;8.27;4.30;;;15.80;1.00;;;;;;5016125;28;22112;-78
2021/06/09 03:10:36;;;;;;;7.03;3.37;;;15.80;1.00;;;;;;5013720;28;20465;-78
2021/06/09 03:13:08;;;;;;;6.40;3.70;;;15.80;1.00;;;;;;5019260;28;21318;-78
2021/06/09 03:15:40;;;;;;;5.37;2.90;;;15.90;1.00;;;;;;5016763;28;21017;-77
2021/06/09 03:18:15;;;;;;;3.30;3.00;;;15.90;1.00;;;;;;5014272;28;20454;-78
2021/06/09 03:20:51;;;;;;;6.73;4.00;;;15.90;1.00;;;;;;5016670;28;20445;-78
2021/06/09 03:23:29;;;;;;;26.77;16.43;;;15.80;1.00;;;;;;5015421;28;20458;-77
2021/06/09 03:26:01;;;;;;;5.80;3.80;;;15.80;1.00;;;;;;5015342;28;20457;-78
2021/06/09 03:28:33;;;;;;;7.37;5.10;;;15.80;1.00;;;;;;4999029;28;20455;-77
2021/06/09 03:31:02;;;;;;;8.43;4.27;;;15.80;1.00;;;;;;5020812;28;20458;-78
2021/06/09 03:33:33;;;;;;;3.90;3.50;;;15.80;1.00;;;;;;5018658;28;20445;-78
2021/06/09 03:36:06;;;;;;;3.43;3.13;;;15.80;1.00;;;;;;5021888;28;20458;-76
2021/06/09 03:38:35;;;;;;;4.70;4.30;;;15.80;1.00;;;;;;5023079;28;20461;-77
2021/06/09 03:41:03;;;;;;;11.40;5.07;;;15.80;1.00;;;;;;5017123;28;20454;-77
2021/06/09 03:43:34;;;;;;;7.90;4.40;;;15.80;1.00;;;;;;5016056;28;20452;-77
2021/06/09 03:46:01;;;;;;;7.07;4.30;;;15.70;1.00;;;;;;5017985;28;20415;-78
2021/06/09 03:48:30;;;;;;;9.20;6.00;;;15.80;1.00;;;;;;5016719;28;20454;-77
2021/06/09 03:51:00;;;;;;;11.43;5.30;;;15.80;1.00;;;;;;5018010;28;20486;-77
2021/06/09 03:53:28;;;;;;;16.40;4.83;;;15.80;1.00;;;;;;5020035;28;20517;-77
2021/06/09 03:55:57;;;;;;;10.80;5.70;;;15.80;1.00;;;;;;5024522;28;20565;-76
2021/06/09 03:58:25;;;;;;;7.27;4.40;;;15.90;1.00;;;;;;5026658;28;20494;-77
2021/06/09 04:00:52;;;;;;;7.30;5.17;;;15.90;1.00;;;;;;5019540;28;20512;-77
2021/06/09 04:03:19;;;;;;;8.73;5.30;;;16.00;1.00;;;;;;5020200;28;20452;-77
2021/06/09 04:05:47;;;;;;;17.93;5.33;;;16.10;1.00;;;;;;5021524;28;20902;-78
2021/06/09 04:08:16;;;;;;;22.83;6.23;;;16.10;1.00;;;;;;5013060;28;20497;-79
2021/06/09 04:10:47;;;;;;;20.73;6.70;;;16.20;1.00;;;;;;5015571;28;20951;-78
2021/06/09 04:13:13;;;;;;;22.30;7.00;;;16.30;1.00;;;;;;5021735;28;20954;-77
2021/06/09 04:15:41;;;;;;;13.87;11.30;;;16.50;1.00;;;;;;5020058;28;20485;-79
2021/06/09 04:18:08;;;;;;;8.43;4.83;;;16.50;1.00;;;;;;5022731;28;21348;-77
2021/06/09 04:20:36;;;;;;;7.20;4.20;;;16.60;1.00;;;;;;5025042;28;20474;-77
2021/06/09 04:23:02;;;;;;;6.33;4.67;;;16.70;1.00;;;;;;5029162;28;20519;-78
2021/06/09 04:25:32;;;;;;;7.20;4.27;;;16.80;1.00;;;;;;5022709;28;20475;-77
2021/06/09 04:28:02;;;;;;;5.57;4.27;;;16.90;1.00;;;;;;5015028;28;20527;-77
2021/06/09 04:30:28;;;;;;;8.40;4.53;;;16.90;1.00;;;;;;5013852;28;20516;-78
2021/06/09 04:32:56;;;;;;;7.40;5.17;;;17.00;1.00;;;;;;5015244;28;20465;-77
2021/06/09 04:35:24;;;;;;;13.90;5.40;;;17.00;1.00;;;;;;5014102;28;20469;-78
2021/06/09 04:37:51;;;;;;;7.70;5.10;;;17.20;1.00;;;;;;5017056;28;20478;-78
2021/06/09 04:40:19;;;;;;;5.87;3.93;;;17.20;1.00;;;;;;5017420;28;20463;-78
2021/06/09 04:42:48;;;;;;;8.23;4.40;;;17.30;1.00;;;;;;5012475;28;22508;-77
2021/06/09 04:45:16;;;;;;;6.87;4.97;;;17.40;1.00;;;;;;5014755;28;20470;-76
2021/06/09 04:47:43;;;;;;;5.87;3.87;;;17.50;1.00;;;;;;5014483;28;20438;-77
2021/06/09 04:50:10;;;;;;;3.93;3.13;;;17.60;1.00;;;;;;5016198;28;20455;-77
2021/06/09 04:52:37;;;;;;;5.80;4.10;;;17.70;1.00;;;;;;5012319;28;20500;-77
2021/06/09 04:55:04;;;;;;;5.47;3.67;;;17.80;1.00;;;;;;5016061;28;20483;-77
2021/06/09 04:57:30;;;;;;;6.47;3.87;;;17.80;1.00;;;;;;5017795;28;20483;-77
2021/06/09 04:59:56;;;;;;;8.87;4.67;;;17.90;1.00;;;;;;5013985;28;20456;-77
2021/06/09 05:02:24;;;;;;;6.03;4.50;;;18.00;1.00;;;;;;5001038;28;20450;-75
2021/06/09 05:04:50;;;;;;;7.00;4.30;;;18.10;1.00;;;;;;5010877;28;20467;-75
2021/06/09 05:07:16;;;;;;;7.67;4.30;;;18.10;1.00;;;;;;5011814;28;20455;-76
2021/06/09 05:09:42;;;;;;;4.07;3.53;;;18.20;1.00;;;;;;5019655;28;20648;-76
2021/06/09 05:12:17;;;;;;;4.03;3.63;;;18.30;1.00;;;;;;5019224;28;20408;-77
2021/06/09 05:14:46;;;;;;;4.33;3.47;;;18.40;1.00;;;;;;4995188;28;20491;-76
2021/06/09 05:17:14;;;;;;;6.73;4.10;;;18.50;1.00;;;;;;5011714;28;20464;-76
2021/06/09 05:19:44;;;;;;;5.97;4.00;;;18.60;1.00;;;;;;5013946;28;21263;-76
2021/06/09 05:22:16;;;;;;;6.10;5.50;;;18.70;1.00;;;;;;5011640;28;20528;-76
2021/06/09 05:24:46;;;;;;;5.60;3.93;;;18.80;1.00;;;;;;5014724;28;20457;-76
2021/06/09 05:27:15;;;;;;;10.67;4.07;;;18.90;1.00;;;;;;5016243;28;20471;-76
2021/06/09 05:29:44;;;;;;;4.10;3.70;;;19.00;1.00;;;;;;5022172;28;21987;-75
2021/06/09 05:32:12;;;;;;;9.43;4.50;;;19.20;1.00;;;;;;5015596;28;20472;-77
2021/06/09 05:34:40;;;;;;;12.53;6.40;;;19.20;1.00;;;;;;5013749;28;20488;-77
2021/06/09 05:37:10;;;;;;;12.13;3.77;;;19.30;1.00;;;;;;5014987;28;20458;-76
2021/06/09 05:39:38;;;;;;;14.80;5.40;;;19.40;1.00;;;;;;5018745;28;20526;-77
2021/06/09 05:42:08;;;;;;;6.83;4.10;;;19.40;1.00;;;;;;5014545;28;20448;-77
2021/06/09 05:44:34;;;;;;;3.40;3.10;;;19.60;1.00;;;;;;4994634;28;20508;-76
2021/06/09 05:47:01;;;;;;;4.83;3.60;;;19.60;1.00;;;;;;5017501;28;20449;-78
2021/06/09 05:49:28;;;;;;;7.40;5.20;;;19.70;1.00;;;;;;5017882;28;20962;-76
2021/06/09 05:51:55;;;;;;;4.33;2.60;;;19.80;1.00;;;;;;5017029;28;20547;-76
2021/06/09 05:54:23;;;;;;;3.70;3.23;;;19.80;1.00;;;;;;5030191;28;20437;-77
2021/06/09 05:56:49;;;;;;;26.73;22.63;;;19.90;1.00;;;;;;5035977;28;20461;-76
2021/06/09 05:59:16;;;;;;;5.80;4.20;;;20.00;1.00;;;;;;5034060;28;20803;-77
2021/06/09 06:01:43;;;;;;;8.60;4.90;;;20.10;1.00;;;;;;5011419;28;20478;-77
2021/06/09 06:04:10;;;;;;;5.60;4.10;;;20.30;1.00;;;;;;5018010;28;20430;-78
2021/06/09 06:06:38;;;;;;;5.03;3.10;;;20.40;1.00;;;;;;5015458;28;20511;-76
2021/06/09 06:09:05;;;;;;;3.37;3.07;;;20.60;1.00;;;;;;5010944;28;20500;-77
2021/06/09 06:11:33;;;;;;;4.20;3.10;;;20.70;1.00;;;;;;5013323;28;20443;-77
2021/06/09 06:14:05;;;;;;;4.00;3.60;;;20.80;1.00;;;;;;5016255;28;20443;-76
2021/06/09 06:16:31;;;;;;;6.40;3.53;;;20.70;1.00;;;;;;5016006;28;21190;-76
2021/06/09 06:18:57;;;;;;;3.60;3.20;;;20.80;1.00;;;;;;5018348;28;21353;-77
2021/06/09 06:21:24;;;;;;;4.50;3.00;;;20.90;1.00;;;;;;5011405;28;87310;-75
2021/06/09 06:23:51;;;;;;;4.30;3.30;;;21.00;1.00;;;;;;5012287;28;20442;-75
2021/06/09 06:26:19;;;;;;;4.30;2.80;;;21.10;1.00;;;;;;5013549;28;20593;-76
2021/06/09 06:28:47;;;;;;;4.70;2.90;;;21.20;1.00;;;;;;5015447;28;20470;-76
2021/06/09 06:31:15;;;;;;;4.70;3.07;;;21.10;1.00;;;;;;5025035;28;20439;-75
2021/06/09 06:33:44;;;;;;;4.80;3.20;;;21.10;1.00;;;;;;5017277;28;20566;-76
2021/06/09 06:36:11;;;;;;;3.73;2.73;;;21.20;1.00;;;;;;5015376;28;20456;-76
2021/06/09 06:38:37;;;;;;;4.03;2.60;;;21.30;1.00;;;;;;5019522;28;20426;-77
2021/06/09 06:41:05;;;;;;;33.57;16.60;;;21.40;1.00;;;;;;5020007;28;20426;-77
2021/06/09 06:43:31;;;;;;;4.00;3.07;;;21.50;1.00;;;;;;5023164;28;20437;-76
2021/06/09 06:45:58;;;;;;;7.07;3.90;;;21.50;1.00;;;;;;5020211;28;20457;-76
2021/06/09 06:48:25;;;;;;;5.20;4.77;;;21.60;1.00;;;;;;5022587;28;20560;-76
2021/06/09 06:50:52;;;;;;;5.17;4.30;;;21.60;1.00;;;;;;5019807;28;20461;-77
2021/06/09 06:53:19;;;;;;;3.80;2.93;;;21.80;1.00;;;;;;5021111;28;21368;-78
2021/06/09 06:55:45;;;;;;;4.03;2.60;;;21.90;1.00;;;;;;5022148;28;20420;-76
2021/06/09 06:58:12;;;;;;;6.00;3.30;;;21.90;1.00;;;;;;5012076;28;20556;-76
2021/06/09 07:00:39;;;;;;;5.00;3.77;;;21.90;1.00;;;;;;5020597;28;20530;-76
2021/06/09 07:03:08;;;;;;;2.90;2.70;;;21.90;1.00;;;;;;5018500;28;20449;-76
2021/06/09 07:05:35;;;;;;;2.80;2.50;;;21.80;1.00;;;;;;5020742;28;20442;-81
2021/06/09 07:08:04;;;;;;;3.07;2.77;;;21.80;1.00;;;;;;5026698;28;20553;-80
2021/06/09 07:10:31;;;;;;;3.50;2.20;;;21.80;1.00;;;;;;5028556;28;20445;-80
2021/06/09 07:12:59;;;;;;;3.07;2.37;;;21.80;1.00;;;;;;5003701;28;20469;-81
2021/06/09 07:15:27;;;;;;;4.57;3.27;;;21.90;1.00;;;;;;5026568;28;20461;-79
2021/06/09 07:17:56;;;;;;;4.30;3.13;;;21.90;1.00;;;;;;5023844;28;20468;-83
2021/06/09 07:20:26;;;;;;;3.57;2.50;;;21.80;1.00;;;;;;5023766;28;20469;-80
2021/06/09 07:22:53;;;;;;;3.70;2.80;;;21.80;1.00;;;;;;5027105;28;20465;-79
2021/06/09 07:25:22;;;;;;;3.77;2.70;;;21.90;1.00;;;;;;5031838;28;21148;-80
2021/06/09 07:27:52;;;;;;;2.87;2.33;;;22.10;1.00;;;;;;5027176;28;21798;-78
2021/06/09 07:30:24;;;;;;;5.13;3.87;;;22.20;1.00;;;;;;5023182;28;21345;-79
2021/06/09 07:32:50;;;;;;;4.30;3.07;;;22.40;1.00;;;;;;5027204;28;20459;-80
2021/06/09 07:35:17;;;;;;;3.30;2.30;;;22.60;1.00;;;;;;5024191;28;20410;-79
2021/06/09 07:37:47;;;;;;;2.60;2.10;;;22.70;1.00;;;;;;5022724;28;20470;-80
2021/06/09 07:40:21;;;;;;;2.80;2.50;;;22.90;1.00;;;;;;5024130;28;20489;-80
2021/06/09 07:42:50;;;;;;;2.57;2.13;;;22.80;1.00;;;;;;5022864;28;20486;-80
2021/06/09 07:45:18;;;;;;;2.23;1.87;;;22.60;1.00;;;;;;5024087;28;20501;-79
2021/06/09 07:47:47;;;;;;;2.90;2.30;;;22.60;1.00;;;;;;5025730;28;21464;-80
2021/06/09 07:50:19;;;;;;;3.93;2.70;;;22.70;1.00;;;;;;5024767;28;20535;-80
2021/06/09 07:52:48;;;;;;;3.07;2.33;;;22.80;1.00;;;;;;5020818;28;20475;-81
2021/06/09 07:55:16;;;;;;;4.30;2.83;;;23.00;1.00;;;;;;5025193;28;20448;-80
2021/06/09 07:57:43;;;;;;;7.27;3.70;;;23.10;1.00;;;;;;5021354;28;20530;-78
2021/06/09 08:00:12;;;;;;;2.93;2.37;;;23.20;1.00;;;;;;5009777;28;20509;-82
2021/06/09 08:02:41;;;;;;;6.63;3.07;;;23.30;1.00;;;;;;5034167;28;20602;-84
2021/06/09 08:05:09;;;;;;;4.60;2.40;;;23.40;1.00;;;;;;5032426;28;20420;-82
2021/06/09 08:07:36;;;;;;;4.87;2.50;;;23.50;1.00;;;;;;5034596;28;20434;-83
2021/06/09 08:10:06;;;;;;;2.13;1.97;;;23.80;1.00;;;;;;5031828;28;20532;-84
2021/06/09 08:12:34;;;;;;;3.27;2.00;;;24.00;1.00;;;;;;5032884;28;20509;-84
2021/06/09 08:15:02;;;;;;;4.80;2.63;;;24.10;1.00;;;;;;5026652;28;20458;-83
2021/06/09 08:17:29;;;;;;;3.80;2.80;;;24.20;1.00;;;;;;5028754;28;20564;-84
2021/06/09 08:19:55;;;;;;;5.43;3.00;;;24.10;1.00;;;;;;5027540;28;20445;-83
2021/06/09 08:22:22;;;;;;;2.97;2.57;;;24.00;1.00;;;;;;5035492;28;20471;-82
2021/06/09 08:24:49;;;;;;;5.00;2.43;;;24.00;1.00;;;;;;5035476;28;20406;-83
2021/06/09 08:27:17;;;;;;;4.37;3.60;;;24.10;1.00;;;;;;5068805;22;20441;-80
2021/06/09 08:29:43;;;;;;;2.53;2.33;;;24.20;1.00;;;;;;5054537;28;20488;-77
2021/06/09 08:32:09;;;;;;;3.60;2.40;;;24.30;1.00;;;;;;5061841;28;20452;-80
2021/06/09 08:34:36;;;;;;;3.60;2.27;;;24.50;1.00;;;;;;5038398;28;20456;-80
2021/06/09 08:37:02;;;;;;;3.50;1.93;;;24.50;1.00;;;;;;5021884;28;20557;-81
2021/06/09 08:39:29;;;;;;;7.73;6.50;;;24.40;1.00;;;;;;5034233;28;20444;-83
2021/06/09 08:41:56;;;;;;;4.93;2.80;;;24.50;1.00;;;;;;5035666;28;20523;-81
2021/06/09 08:44:24;;;;;;;2.90;2.27;;;24.70;1.00;;;;;;5032752;28;20467;-82
2021/06/09 08:46:53;;;;;;;4.50;2.00;;;24.90;1.00;;;;;;5037885;28;20501;-81
2021/06/09 08:49:21;;;;;;;5.07;2.43;;;24.90;1.00;;;;;;5032085;28;20870;-79
2021/06/09 08:51:49;;;;;;;3.10;2.73;;;24.90;1.00;;;;;;5052870;28;20473;-80
2021/06/09 08:54:16;;;;;;;4.57;2.10;;;24.90;1.00;;;;;;5050630;28;20408;-77
2021/06/09 08:56:42;;;;;;;3.67;2.50;;;24.90;1.00;;;;;;5050249;28;20406;-79
2021/06/09 08:59:08;;;;;;;2.07;1.93;;;25.00;1.00;;;;;;5047644;28;20481;-77
2021/06/09 09:01:36;;;;;;;2.07;1.90;;;25.10;1.00;;;;;;5048018;28;20450;-77
2021/06/09 09:04:04;;;;;;;3.17;2.27;;;25.10;1.00;;;;;;5048486;28;20418;-77
2021/06/09 09:06:31;;;;;;;4.33;2.20;;;25.10;1.00;;;;;;5048256;28;20425;-77
2021/06/09 09:08:57;;;;;;;2.20;2.00;;;25.10;1.00;;;;;;5046610;28;20453;-78
2021/06/09 09:11:24;;;;;;;7.70;5.33;;;25.30;1.00;;;;;;5047127;28;20423;-80
2021/06/09 09:13:50;;;;;;;4.17;2.40;;;25.40;1.00;;;;;;5046733;28;20543;-79
2021/06/09 09:16:17;;;;;;;6.37;2.63;;;25.60;1.00;;;;;;5045001;28;20438;-82
2021/06/09 09:18:53;;;;;;;2.57;2.27;;;25.80;1.00;;;;;;5049547;28;20471;-79
2021/06/09 09:21:34;;;;;;;3.67;2.17;;;26.00;1.00;;;;;;5050144;28;20566;-78
2021/06/09 09:24:06;;;;;;;4.70;2.67;;;26.00;1.00;;;;;;5041899;28;20395;-82
2021/06/09 09:26:34;;;;;;;6.37;3.10;;;26.10;1.00;;;;;;5039726;28;20438;-77
2021/06/09 09:29:15;;;;;;;4.87;2.20;;;26.20;1.00;;;;;;5023195;28;20418;-77
2021/06/09 09:31:46;;;;;;;6.93;2.50;;;26.20;1.00;;;;;;5026844;28;20420;-78
2021/06/09 09:34:37;;;;;;;2.30;2.10;;;26.30;1.00;;;;;;5027372;28;20485;-77
2021/06/09 09:37:12;;;;;;;4.43;3.23;;;26.60;1.00;;;;;;5025180;28;20470;-78
2021/06/09 09:39:40;;;;;;;3.83;2.53;;;27.30;1.00;;;;;;5018888;28;20570;-76
2021/06/09 09:42:31;;;;;;;3.77;2.90;;;28.70;1.00;;;;;;5023139;28;20425;-78
2021/06/09 09:45:16;;;;;;;2.90;2.53;;;30.40;1.00;;;;;;5022182;28;20542;-77
2021/06/09 09:47:43;;;;;;;3.20;1.87;;;31.70;1.00;;;;;;5021036;28;20472;-79
2021/06/09 09:50:29;;;;;;;4.80;2.10;;;32.40;1.00;;;;;;5022955;28;20429;-77
2021/06/09 09:52:55;;;;;;;2.03;1.60;;;33.30;1.00;;;;;;5025280;28;20523;-77
2021/06/09 09:55:22;;;;;;;5.13;2.13;;;34.00;1.00;;;;;;5029530;28;20525;-81
2021/06/09 09:57:48;;;;;;;2.10;2.00;;;34.80;1.00;;;;;;5034542;28;20539;-82
2021/06/09 10:00:32;;;;;;;2.10;1.90;;;35.30;1.00;;;;;;5036863;28;20449;-83
2021/06/09 10:03:14;;;;;;;2.53;2.30;;;35.80;1.00;;;;;;5032355;28;21272;-81
2021/06/09 10:05:42;;;;;;;4.87;2.90;;;36.10;1.00;;;;;;5012471;28;20433;-84
2021/06/09 10:08:09;;;;;;;2.60;2.40;;;36.40;1.00;;;;;;5025245;28;20537;-82
2021/06/09 10:10:36;;;;;;;3.13;2.37;;;35.90;1.00;;;;;;5013910;28;20440;-83
2021/06/09 10:13:07;;;;;;;3.43;3.10;;;35.80;1.00;;;;;;5034881;28;20473;-84
2021/06/09 10:15:34;;;;;;;2.13;1.93;;;35.20;1.00;;;;;;5020215;28;20508;-84
2021/06/09 10:18:14;;;;;;;3.33;2.70;;;35.10;1.00;;;;;;5033136;28;20468;-81
2021/06/09 10:20:45;;;;;;;4.50;2.60;;;35.50;1.00;;;;;;5035128;28;20440;-80
2021/06/09 10:23:35;;;;;;;3.10;2.80;;;36.20;1.00;;;;;;5038797;28;20425;-83
2021/06/09 10:26:07;;;;;;;4.60;2.60;;;37.00;1.00;;;;;;5034697;28;20551;-83
2021/06/09 10:28:56;;;;;;;4.40;2.10;;;37.40;1.00;;;;;;5039875;28;20541;-83
2021/06/09 10:31:23;;;;;;;3.50;2.30;;;37.80;1.00;;;;;;5026941;28;20397;-82
2021/06/09 10:33:50;;;;;;;3.20;2.23;;;38.00;1.00;;;;;;5030610;28;20418;-82
2021/06/09 10:36:19;;;;;;;3.63;2.17;;;38.40;1.00;;;;;;5036440;28;20466;-82
2021/06/09 10:38:46;;;;;;;2.60;1.73;;;37.90;1.00;;;;;;5048240;28;20429;-81
2021/06/09 10:41:14;;;;;;;2.70;2.00;;;37.30;1.00;;;;;;5029140;28;20413;-83
2021/06/09 10:43:42;;;;;;;2.57;2.37;;;36.80;1.00;;;;;;5026144;28;20425;-81
2021/06/09 10:46:11;;;;;;;2.00;1.50;;;37.20;1.00;;;;;;5043536;28;20468;-80
2021/06/09 10:48:40;;;;;;;2.80;1.90;;;37.40;1.00;;;;;;5041871;28;20480;-77
2021/06/09 10:51:08;;;;;;;1.87;1.70;;;37.10;1.00;;;;;;5036609;28;20444;-78
2021/06/09 10:53:37;;;;;;;4.20;2.07;;;37.30;1.00;;;;;;5034395;28;20472;-77
2021/06/09 10:56:04;;;;;;;6.03;3.17;;;37.90;1.00;;;;;;5028500;28;21215;-77
2021/06/09 10:58:31;;;;;;;1.97;1.87;;;38.90;1.00;;;;;;5028627;28;21161;-78
2021/06/09 11:00:58;;;;;;;6.40;2.00;;;39.50;1.00;;;;;;5025352;28;20421;-77
2021/06/09 11:03:25;;;;;;;2.33;1.80;;;39.70;1.00;;;;;;5022142;28;20460;-79
2021/06/09 11:05:52;;;;;;;3.57;2.80;;;39.20;1.00;;;;;;5023164;28;20469;-79
2021/06/09 11:08:18;;;;;;;28.10;4.17;;;38.90;1.00;;;;;;5025955;28;20516;-77
2021/06/09 11:11:17;;;;;;;2.27;1.13;;;38.90;1.00;;;;;;5008779;28;20491;-79
2021/06/09 11:13:46;;;;;;;2.33;1.50;;;39.10;1.00;;;;;;5032577;28;20468;-77
2021/06/09 11:16:15;;;;;;;1.60;1.50;;;38.70;1.00;;;;;;5007969;28;20596;-79
2021/06/09 11:18:43;;;;;;;6.20;3.53;;;38.90;1.00;;;;;;5029003;28;20498;-78
2021/06/09 11:21:11;;;;;;;2.17;1.97;;;39.00;1.00;;;;;;5028317;28;20812;-77
2021/06/09 11:23:40;;;;;;;3.43;1.93;;;39.30;1.00;;;;;;5025219;28;20536;-79
2021/06/09 11:26:23;;;;;;;2.10;1.90;;;38.90;1.00;;;;;;5021517;28;20462;-77
2021/06/09 11:28:49;;;;;;;5.50;5.00;;;39.10;1.00;;;;;;5024187;28;20621;-79
2021/06/09 11:31:23;;;;;;;3.70;1.90;;;39.80;1.00;;;;;;5032103;28;20394;-79
2021/06/09 11:33:59;;;;;;;2.00;1.80;;;40.50;1.00;;;;;;5038474;28;20446;-77
2021/06/09 11:36:39;;;;;;;4.43;2.70;;;40.70;1.00;;;;;;5040376;28;20552;-78
2021/06/09 11:39:21;;;;;;;3.90;2.33;;;40.90;1.00;;;;;;5032297;28;20517;-78
2021/06/09 11:41:50;;;;;;;4.47;4.07;;;41.50;1.00;;;;;;5023667;28;20413;-79
2021/06/09 11:44:29;;;;;;;2.10;1.90;;;41.60;1.00;;;;;;5021583;28;20544;-77
2021/06/09 11:47:17;;;;;;;5.93;2.70;;;41.50;1.00;;;;;;5024097;28;21535;-80
2021/06/09 11:49:45;;;;;;;3.27;1.83;;;41.20;1.00;;;;;;5020500;28;20454;-78
2021/06/09 11:52:11;;;;;;;1.80;1.30;;;41.60;1.00;;;;;;5025489;28;20414;-77
2021/06/09 11:54:38;;;;;;;2.30;1.80;;;41.60;1.00;;;;;;5023021;28;20523;-77
2021/06/09 11:57:16;;;;;;;4.83;1.77;;;41.40;1.00;;;;;;5027214;28;20576;-79
2021/06/09 11:59:43;;;;;;;1.90;1.70;;;41.10;1.00;;;;;;5030593;28;20483;-81
2021/06/09 12:02:17;;;;;;;2.20;1.57;;;40.90;1.00;;;;;;5028208;28;21295;-79
2021/06/09 12:04:45;;;;;;;1.70;1.60;;;40.80;1.00;;;;;;5026559;28;20531;-78
2021/06/09 12:07:13;;;;;;;2.33;1.50;;;40.80;1.00;;;;;;5013814;28;20461;-80
2021/06/09 12:09:41;;;;;;;1.87;1.77;;;41.00;1.00;;;;;;5024103;28;20500;-78
2021/06/09 12:12:13;;;;;;;1.97;1.70;;;40.70;1.00;;;;;;5026133;28;20456;-78
2021/06/09 12:14:40;;;;;;;3.70;1.83;;;40.90;1.00;;;;;;5017507;28;20444;-78
2021/06/09 12:17:16;;;;;;;1.90;1.37;;;41.50;1.00;;;;;;5018287;28;21329;-78
2021/06/09 12:19:44;;;;;;;2.33;1.70;;;42.40;1.00;;;;;;5021361;28;21276;-79
2021/06/09 12:22:14;;;;;;;4.50;2.40;;;42.70;1.00;;;;;;5023335;28;20512;-79
2021/06/09 12:24:41;;;;;;;2.13;1.60;;;43.10;1.00;;;;;;5025363;28;20464;-78
2021/06/09 12:27:11;;;;;;;3.90;2.30;;;42.80;1.00;;;;;;5019797;28;20489;-78
2021/06/09 12:29:38;;;;;;;4.00;2.83;;;41.90;1.00;;;;;;5022567;28;20464;-77
2021/06/09 12:32:17;;;;;;;2.00;1.90;;;42.00;1.00;;;;;;5000964;28;20453;-78
2021/06/09 12:34:52;;;;;;;2.30;1.57;;;42.10;1.00;;;;;;5024472;28;20507;-77
2021/06/09 12:37:20;;;;;;;1.80;1.37;;;42.00;1.00;;;;;;5030050;28;20473;-79
2021/06/09 12:39:53;;;;;;;2.83;1.93;;;41.00;1.00;;;;;;5029808;28;20473;-77
2021/06/09 12:42:21;;;;;;;2.47;1.80;;;38.80;1.00;;;;;;5005709;28;20457;-78
2021/06/09 12:44:49;;;;;;;2.70;2.50;;;37.10;1.00;;;;;;5025269;28;21396;-79
2021/06/09 12:47:27;;;;;;;3.23;1.90;;;37.90;1.00;;;;;;5024107;28;20455;-80
2021/06/09 12:50:11;;;;;;;2.27;1.60;;;39.20;1.00;;;;;;5024824;28;20611;-79
2021/06/09 12:52:38;;;;;;;3.20;1.80;;;39.90;1.00;;;;;;5025880;28;20451;-78
2021/06/09 12:55:10;;;;;;;3.50;2.20;;;40.40;1.00;;;;;;5021653;28;20458;-80
2021/06/09 12:57:38;;;;;;;2.50;1.50;;;41.20;1.00;;;;;;5020068;28;20556;-77
2021/06/09 13:00:27;;;;;;;2.87;2.30;;;42.00;1.00;;;;;;5013723;28;20473;-78
2021/06/09 13:03:12;;;;;;;3.70;2.07;;;42.50;1.00;;;;;;5012846;28;20442;-77
2021/06/09 13:05:39;;;;;;;3.23;2.30;;;43.10;1.00;;;;;;5025537;28;21454;-78